This is the latest recevied weather packets stored in our database for station/object KG5MMT-15. If no packets are shown the sender has not sent any weather packets the latest 10 day(s).
| Time | Temp. | Humidity | Pressure | Rain* | Wind** | Luminosity | Snow |
|---|---|---|---|---|---|---|---|
| 1788658659 | 22.78° C | 52% | 0 hPa | 0 mm | - | - | - |
| 1788658359 | 22.78° C | 52% | 0 hPa | 0 mm | - | - | - |
| 1788658059 | 22.78° C | 51% | 0 hPa | 0 mm | - | - | - |
| 1788657759 | 22.78° C | 50% | 0 hPa | 0 mm | - | - | - |
| 1788657459 | 22.78° C | 50% | 0 hPa | 0 mm | - | - | - |
| 1788657159 | 23.33° C | 49% | 0 hPa | 0 mm | - | - | - |
| 1788656859 | 23.33° C | 47% | 0 hPa | 0 mm | - | - | - |
| 1788656565 | 22.78° C | 48% | 0 hPa | 0 mm | - | - | - |
| 1788656259 | 22.78° C | 53% | 0 hPa | 0 mm | - | - | - |
| 1788655959 | 22.78° C | 53% | 0 hPa | 0 mm | - | - | - |
| 1788655659 | 23.33° C | 52% | 0 hPa | 0 mm | - | - | - |
| 1788655359 | 23.89° C | 49% | 0 hPa | 0 mm | - | - | - |
| 1788655059 | 24.44° C | 46% | 0 hPa | 0 mm | - | - | - |
| 1788654759 | 24.44° C | 43% | 0 hPa | 0 mm | - | - | - |
| 1788654459 | 24.44° C | 43% | 0 hPa | 0 mm | - | - | - |
| 1788654159 | 24.44° C | 42% | 0 hPa | 0 mm | - | - | - |
| 1788653859 | 24.44° C | 43% | 0 hPa | 0 mm | - | - | - |
| 1788653559 | 24.44° C | 44% | 0 hPa | 0 mm | - | - | - |
| 1788653259 | 23.89° C | 45% | 0 hPa | 0 mm | - | - | - |
| 1788652959 | 23.89° C | 48% | 0 hPa | 0 mm | - | - | - |
| 1788652659 | 23.33° C | 51% | 0 hPa | 0 mm | - | - | - |
| 1788652359 | 23.33° C | 51% | 0 hPa | 0 mm | - | - | - |
| 1788652059 | 24.44° C | 45% | 0 hPa | 0 mm | - | - | - |
| 1788651759 | 24.44° C | 48% | 0 hPa | 0 mm | - | - | - |
| 1788651459 | 24.44° C | 45% | 0 hPa | 0 mm | - | - | - |
* Rain latest hour (hover to see other rain measurements)
** Current wind speed in m/s (hover to see current wind gust speed)